createdAt,value
2018-03-23T00:00:04.786Z,1003.17
2018-03-23T00:01:14.766Z,1003.14
2018-03-23T00:02:24.744Z,1003.15
2018-03-23T00:03:34.724Z,1003.13
2018-03-23T00:04:44.169Z,1003.11
2018-03-23T00:05:53.882Z,1003.07
2018-03-23T00:07:03.327Z,1003.04
2018-03-23T00:08:13.323Z,1003.03
2018-03-23T00:09:23.022Z,1003.06
2018-03-23T00:10:32.207Z,1003.08
2018-03-23T00:11:42.169Z,1003.06
2018-03-23T00:12:52.130Z,1003.06
2018-03-23T00:14:02.114Z,1003.05
2018-03-23T00:15:11.547Z,1003.1
2018-03-23T00:16:21.509Z,1003.06
2018-03-23T00:17:31.206Z,1003.1
2018-03-23T00:18:41.171Z,1003.1
2018-03-23T00:19:51.130Z,1003.1
2018-03-23T00:21:00.589Z,1003.1
2018-03-23T00:22:10.557Z,1003.07
2018-03-23T00:23:20.281Z,1003.07
2018-03-23T00:24:29.986Z,1003.08
2018-03-23T00:25:39.739Z,1003.06
2018-03-23T00:26:49.185Z,1003.11
2018-03-23T00:27:59.144Z,1003.11
2018-03-23T00:29:09.115Z,1003.1
2018-03-23T00:30:18.827Z,1003.12
2018-03-23T00:31:28.535Z,1003.11
2018-03-23T00:32:38.503Z,1003.08
2018-03-23T00:33:48.477Z,1003.13
2018-03-23T00:34:58.184Z,1003.13
2018-03-23T00:36:07.978Z,1003.19
2018-03-23T00:37:17.962Z,1003.16
2018-03-23T00:38:27.924Z,1003.21
2018-03-23T00:39:37.641Z,1003.17
2018-03-23T00:40:47.341Z,1003.12
2018-03-23T00:41:56.780Z,1003.17
2018-03-23T00:43:06.497Z,1003.12
2018-03-23T00:44:16.202Z,1003.13
2018-03-23T00:45:26.166Z,1003.12
2018-03-23T00:46:35.865Z,1003.16
2018-03-23T00:47:45.562Z,1003.18
2018-03-23T00:48:55.269Z,1003.15
2018-03-23T00:50:05.229Z,1003.17
2018-03-23T00:51:15.197Z,1003.14
2018-03-23T00:52:24.911Z,1003.11
2018-03-23T00:53:34.373Z,1003.1
2018-03-23T00:54:44.068Z,1003.1
2018-03-23T00:55:53.249Z,1003.06
2018-03-23T00:57:02.689Z,1003.05
2018-03-23T00:58:12.388Z,1003.05
2018-03-23T00:59:22.093Z,1003.04
2018-03-23T01:00:31.585Z,1003.01
2018-03-23T01:01:41.050Z,1002.96
2018-03-23T01:02:50.492Z,1003
2018-03-23T01:04:00.188Z,1002.98
2018-03-23T01:05:09.626Z,1002.98
2018-03-23T01:06:19.342Z,1003.01
2018-03-23T01:07:29.123Z,1002.98
2018-03-23T01:08:38.826Z,1002.99
2018-03-23T01:09:48.784Z,1003.04
2018-03-23T01:10:58.492Z,1002.99
2018-03-23T01:12:07.937Z,1003
2018-03-23T01:13:17.384Z,1003.01
2018-03-23T01:14:27.091Z,1003.08
2018-03-23T01:15:37.219Z,1003.03
2018-03-23T01:16:46.406Z,1003
2018-03-23T01:17:56.109Z,1003.02
2018-03-23T01:19:05.825Z,1002.99
2018-03-23T01:20:15.532Z,1003.01
2018-03-23T01:21:24.977Z,1003.03
2018-03-23T01:22:34.936Z,1003.03
2018-03-23T01:23:44.632Z,1003.06
2018-03-23T01:24:54.077Z,1003.01
2018-03-23T01:26:03.522Z,1003.02
2018-03-23T01:27:13.219Z,1003.01
2018-03-23T01:28:23.182Z,1003.03
2018-03-23T01:29:33.144Z,1003.02
2018-03-23T01:30:43.151Z,1002.99
2018-03-23T01:31:53.106Z,1002.98
2018-03-23T01:33:02.553Z,1002.99
2018-03-23T01:34:12.509Z,1002.98
2018-03-23T01:35:22.215Z,1003.03
2018-03-23T01:36:32.266Z,1003.01
2018-03-23T01:37:42.281Z,1003
2018-03-23T01:38:51.996Z,1002.97
2018-03-23T01:40:01.964Z,1002.98
2018-03-23T01:41:11.677Z,1003.02
2018-03-23T01:42:21.376Z,1003.01
2018-03-23T01:43:30.294Z,1003.03
2018-03-23T01:44:39.734Z,1002.97
2018-03-23T01:45:49.692Z,1003.05
2018-03-23T01:46:59.657Z,1003.06
2018-03-23T01:48:09.355Z,1003.06
2018-03-23T01:49:19.048Z,1003.05
2018-03-23T01:50:28.502Z,1003.06
2018-03-23T01:51:38.199Z,1003.05
2018-03-23T01:52:48.168Z,1003.06
2018-03-23T01:53:57.876Z,1003.07
2018-03-23T01:55:07.322Z,1003.03
2018-03-23T01:56:17.283Z,1003.05
2018-03-23T01:57:26.723Z,1002.98
2018-03-23T01:58:36.718Z,1002.98
2018-03-23T01:59:46.150Z,1002.97
2018-03-23T02:00:56.113Z,1002.98
2018-03-23T02:02:05.811Z,1003.01
2018-03-23T02:03:15.790Z,1002.92
2018-03-23T02:04:25.840Z,1003
2018-03-23T02:05:35.804Z,1002.99
2018-03-23T02:06:45.513Z,1003.02
2018-03-23T02:07:54.701Z,1003.02
2018-03-23T02:09:03.878Z,1003.03
2018-03-23T02:10:13.836Z,1003.01
2018-03-23T02:11:23.288Z,1003.04
2018-03-23T02:12:33.034Z,1003.08
2018-03-23T02:13:42.477Z,1003.05
2018-03-23T02:14:52.171Z,1003.02
2018-03-23T02:16:02.144Z,1002.99
2018-03-23T02:17:11.848Z,1002.99
2018-03-23T02:18:21.811Z,1003
2018-03-23T02:19:31.767Z,1002.94
2018-03-23T02:20:41.484Z,1002.94
2018-03-23T02:21:51.233Z,1002.92
2018-03-23T02:23:00.682Z,1002.91
2018-03-23T02:24:10.383Z,1002.9
2018-03-23T02:25:19.831Z,1002.89
2018-03-23T02:26:29.543Z,1002.88
2018-03-23T02:27:39.247Z,1002.84
2018-03-23T02:28:49.212Z,1002.89
2018-03-23T02:29:58.918Z,1002.9
2018-03-23T02:31:08.357Z,1002.88
2018-03-23T02:32:18.091Z,1002.8
2018-03-23T02:33:27.551Z,1002.82
2018-03-23T02:34:37.514Z,1002.81
2018-03-23T02:35:47.214Z,1002.85
2018-03-23T02:36:56.923Z,1002.85
2018-03-23T02:38:06.636Z,1002.84
2018-03-23T02:39:16.080Z,1002.83
2018-03-23T02:40:26.093Z,1002.81
2018-03-23T02:41:35.802Z,1002.79
2018-03-23T02:42:45.766Z,1002.77
2018-03-23T02:43:55.466Z,1002.73
2018-03-23T02:45:05.437Z,1002.76
2018-03-23T02:46:15.150Z,1002.77
2018-03-23T02:47:24.848Z,1002.75
2018-03-23T02:48:34.312Z,1002.73
2018-03-23T02:49:44.300Z,1002.76
2018-03-23T02:50:53.748Z,1002.76
2018-03-23T02:52:03.713Z,1002.73
2018-03-23T02:53:13.178Z,1002.74
2018-03-23T02:54:23.166Z,1002.74
2018-03-23T02:55:33.175Z,1002.72
2018-03-23T02:56:42.634Z,1002.74
2018-03-23T02:57:52.619Z,1002.71
2018-03-23T02:59:02.320Z,1002.74
2018-03-23T03:00:12.046Z,1002.74
2018-03-23T03:01:22.003Z,1002.74
2018-03-23T03:02:31.979Z,1002.71
2018-03-23T03:03:41.954Z,1002.75
2018-03-23T03:04:51.933Z,1002.76
2018-03-23T03:06:01.656Z,1002.7
2018-03-23T03:07:11.120Z,1002.73
2018-03-23T03:08:21.086Z,1002.69
2018-03-23T03:09:31.046Z,1002.68
2018-03-23T03:10:40.802Z,1002.72
2018-03-23T03:11:50.762Z,1002.73
2018-03-23T03:13:00.722Z,1002.69
2018-03-23T03:14:10.433Z,1002.7
2018-03-23T03:15:20.403Z,1002.71
2018-03-23T03:16:30.382Z,1002.72
2018-03-23T03:17:40.098Z,1002.7
2018-03-23T03:18:50.058Z,1002.75
2018-03-23T03:20:00.017Z,1002.71
2018-03-23T03:21:09.982Z,1002.71
2018-03-23T03:22:19.954Z,1002.72
2018-03-23T03:23:29.669Z,1002.76
2018-03-23T03:24:39.389Z,1002.76
2018-03-23T03:25:49.345Z,1002.81
2018-03-23T03:26:59.056Z,1002.8
2018-03-23T03:28:08.751Z,1002.87
2018-03-23T03:29:18.454Z,1002.81
2018-03-23T03:30:28.159Z,1002.85
2018-03-23T03:31:37.865Z,1002.82
2018-03-23T03:32:47.834Z,1002.83
2018-03-23T03:33:57.790Z,1002.87
2018-03-23T03:35:07.537Z,1002.88
2018-03-23T03:36:17.242Z,1002.86
2018-03-23T03:37:26.682Z,1002.88
2018-03-23T03:38:36.374Z,1002.82
2018-03-23T03:39:46.084Z,1002.9
2018-03-23T03:40:55.518Z,1002.86
2018-03-23T03:42:04.969Z,1002.84
2018-03-23T03:43:14.675Z,1002.85
2018-03-23T03:44:24.383Z,1002.89
2018-03-23T03:45:34.076Z,1002.91
2018-03-23T03:46:43.777Z,1002.92
2018-03-23T03:47:53.740Z,1002.95
2018-03-23T03:49:03.182Z,1002.93
2018-03-23T03:50:13.139Z,1002.92
2018-03-23T03:51:22.844Z,1002.88
2018-03-23T03:52:32.807Z,1002.88
2018-03-23T03:53:42.785Z,1002.9
2018-03-23T03:54:52.762Z,1002.86
2018-03-23T03:56:02.467Z,1002.86
2018-03-23T03:57:12.419Z,1002.85
2018-03-23T03:58:22.384Z,1002.89
2018-03-23T03:59:32.346Z,1002.9
2018-03-23T04:00:41.537Z,1002.93
2018-03-23T04:01:51.493Z,1002.89
2018-03-23T04:03:00.946Z,1002.88
2018-03-23T04:04:10.652Z,1002.87
2018-03-23T04:05:20.630Z,1002.83
2018-03-23T04:06:30.594Z,1002.85
2018-03-23T04:07:40.567Z,1002.9
2018-03-23T04:08:50.541Z,1002.9
2018-03-23T04:10:00.511Z,1002.9
2018-03-23T04:11:10.204Z,1002.88
2018-03-23T04:12:19.916Z,1002.85
2018-03-23T04:13:29.881Z,1002.87
2018-03-23T04:14:39.829Z,1002.87
2018-03-23T04:15:49.787Z,1002.86
2018-03-23T04:16:59.744Z,1002.86
2018-03-23T04:18:09.778Z,1002.87
2018-03-23T04:19:19.478Z,1002.8
2018-03-23T04:20:29.171Z,1002.81
2018-03-23T04:21:39.132Z,1002.84
2018-03-23T04:22:48.834Z,1002.84
2018-03-23T04:23:58.021Z,1002.8
2018-03-23T04:25:07.987Z,1002.8
2018-03-23T04:26:17.436Z,1002.8
2018-03-23T04:27:27.135Z,1002.78
2018-03-23T04:28:36.582Z,1002.81
2018-03-23T04:29:46.024Z,1002.79
2018-03-23T04:30:55.986Z,1002.8
2018-03-23T04:32:05.433Z,1002.77
2018-03-23T04:33:15.145Z,1002.75
2018-03-23T04:34:24.844Z,1002.73
2018-03-23T04:35:34.547Z,1002.72
2018-03-23T04:36:43.727Z,1002.7
2018-03-23T04:37:52.912Z,1002.69
2018-03-23T04:39:02.608Z,1002.73
2018-03-23T04:40:12.040Z,1002.71
2018-03-23T04:41:20.969Z,1002.71
2018-03-23T04:42:30.401Z,1002.72
2018-03-23T04:43:39.838Z,1002.71
2018-03-23T04:44:49.533Z,1002.67
2018-03-23T04:45:58.964Z,1002.74
2018-03-23T04:47:08.994Z,1002.72
2018-03-23T04:48:18.962Z,1002.7
2018-03-23T04:49:28.396Z,1002.68
2018-03-23T04:50:38.353Z,1002.69
2018-03-23T04:51:48.056Z,1002.71
2018-03-23T04:52:58.019Z,1002.69
2018-03-23T04:54:07.985Z,1002.68
2018-03-23T04:55:17.427Z,1002.67
2018-03-23T04:56:27.394Z,1002.67
2018-03-23T04:57:36.838Z,1002.64
2018-03-23T04:58:46.555Z,1002.65
2018-03-23T04:59:56.536Z,1002.63
2018-03-23T05:01:06.491Z,1002.6
2018-03-23T05:02:15.936Z,1002.59
2018-03-23T05:03:25.629Z,1002.53
2018-03-23T05:04:35.326Z,1002.57
2018-03-23T05:05:45.024Z,1002.57
2018-03-23T05:06:54.487Z,1002.53
2018-03-23T05:08:04.509Z,1002.55
2018-03-23T05:09:14.215Z,1002.56
2018-03-23T05:10:23.909Z,1002.54
2018-03-23T05:11:33.348Z,1002.55
2018-03-23T05:12:42.546Z,1002.54
2018-03-23T05:13:52.250Z,1002.59
2018-03-23T05:15:01.701Z,1002.55
2018-03-23T05:16:11.161Z,1002.57
2018-03-23T05:17:20.603Z,1002.55
2018-03-23T05:18:30.554Z,1002.58
2018-03-23T05:19:40.262Z,1002.55
2018-03-23T05:20:49.975Z,1002.58
2018-03-23T05:21:59.931Z,1002.53
2018-03-23T05:23:09.634Z,1002.58
2018-03-23T05:24:19.596Z,1002.55
2018-03-23T05:25:29.556Z,1002.57
2018-03-23T05:26:39.532Z,1002.58
2018-03-23T05:27:49.235Z,1002.55
2018-03-23T05:28:58.670Z,1002.56
2018-03-23T05:30:08.654Z,1002.56
2018-03-23T05:31:18.611Z,1002.53
2018-03-23T05:32:28.039Z,1002.53
2018-03-23T05:33:37.752Z,1002.54
2018-03-23T05:34:47.468Z,1002.53
2018-03-23T05:35:57.164Z,1002.58
2018-03-23T05:37:06.623Z,1002.56
2018-03-23T05:38:16.602Z,1002.55
2018-03-23T05:39:26.567Z,1002.6
2018-03-23T05:40:35.754Z,1002.59
2018-03-23T05:41:45.674Z,1002.58
2018-03-23T05:42:55.371Z,1002.58
2018-03-23T05:44:05.323Z,1002.57
2018-03-23T05:45:14.767Z,1002.59
2018-03-23T05:46:24.785Z,1002.58
2018-03-23T05:47:34.799Z,1002.58
2018-03-23T05:48:44.496Z,1002.57
2018-03-23T05:49:54.199Z,1002.57
2018-03-23T05:51:03.901Z,1002.6
2018-03-23T05:52:13.869Z,1002.58
2018-03-23T05:53:23.578Z,1002.55
2018-03-23T05:54:33.018Z,1002.59
2018-03-23T05:55:42.985Z,1002.62
2018-03-23T05:56:52.424Z,1002.59
2018-03-23T05:58:02.127Z,1002.58
2018-03-23T05:59:11.826Z,1002.57
2018-03-23T06:00:21.807Z,1002.59
2018-03-23T06:01:31.250Z,1002.57
2018-03-23T06:02:41.222Z,1002.56
2018-03-23T06:03:50.927Z,1002.6
2018-03-23T06:05:00.637Z,1002.63
2018-03-23T06:06:10.085Z,1002.65
2018-03-23T06:07:19.802Z,1002.64
2018-03-23T06:08:29.780Z,1002.64
2018-03-23T06:09:38.976Z,1002.66
2018-03-23T06:10:48.162Z,1002.66
2018-03-23T06:11:58.140Z,1002.63
2018-03-23T06:13:08.096Z,1002.66
2018-03-23T06:14:17.797Z,1002.66
2018-03-23T06:15:27.761Z,1002.62
2018-03-23T06:16:37.451Z,1002.64
2018-03-23T06:17:47.479Z,1002.68
2018-03-23T06:18:57.181Z,1002.7
2018-03-23T06:20:07.135Z,1002.69
2018-03-23T06:21:16.307Z,1002.67
2018-03-23T06:22:26.027Z,1002.66
2018-03-23T06:23:35.475Z,1002.66
2018-03-23T06:24:45.179Z,1002.66
2018-03-23T06:25:54.620Z,1002.66
2018-03-23T06:27:04.592Z,1002.64
2018-03-23T06:28:14.037Z,1002.65
2018-03-23T06:29:24.061Z,1002.62
2018-03-23T06:30:33.773Z,1002.65
2018-03-23T06:31:43.494Z,1002.66
2018-03-23T06:32:53.465Z,1002.66
2018-03-23T06:34:03.212Z,1002.66
2018-03-23T06:35:12.934Z,1002.67
2018-03-23T06:36:22.660Z,1002.62
2018-03-23T06:37:32.620Z,1002.6
2018-03-23T06:38:42.325Z,1002.65
2018-03-23T06:39:52.295Z,1002.63
2018-03-23T06:41:02.279Z,1002.62
2018-03-23T06:42:11.738Z,1002.71
2018-03-23T06:43:21.183Z,1002.66
2018-03-23T06:44:31.152Z,1002.69
2018-03-23T06:45:40.935Z,1002.7
2018-03-23T06:46:50.639Z,1002.71
2018-03-23T06:48:00.080Z,1002.68
2018-03-23T06:49:09.851Z,1002.74
2018-03-23T06:50:19.580Z,1002.71
2018-03-23T06:51:29.556Z,1002.73
2018-03-23T06:52:39.285Z,1002.74
2018-03-23T06:53:48.740Z,1002.74
2018-03-23T06:54:58.712Z,1002.75
2018-03-23T06:56:08.684Z,1002.76
2018-03-23T06:57:18.658Z,1002.72
2018-03-23T06:58:28.352Z,1002.75
2018-03-23T06:59:37.828Z,1002.8
2018-03-23T07:00:47.564Z,1002.79
2018-03-23T07:01:57.522Z,1002.78
2018-03-23T07:03:07.513Z,1002.75
2018-03-23T07:04:17.510Z,1002.74
2018-03-23T07:05:27.229Z,1002.78
2018-03-23T07:06:36.713Z,1002.79
2018-03-23T07:07:45.908Z,1002.76
2018-03-23T07:08:55.620Z,1002.79
2018-03-23T07:10:05.606Z,1002.83
2018-03-23T07:11:15.389Z,1002.84
2018-03-23T07:12:25.367Z,1002.87
2018-03-23T07:13:35.104Z,1002.83
2018-03-23T07:14:45.094Z,1002.83
2018-03-23T07:15:54.835Z,1002.82
2018-03-23T07:17:04.544Z,1002.82
2018-03-23T07:18:14.799Z,1002.83
2018-03-23T07:19:24.796Z,1002.81
2018-03-23T07:20:34.801Z,1002.8
2018-03-23T07:21:44.523Z,1002.85
2018-03-23T07:22:54.241Z,1002.81
2018-03-23T07:24:03.722Z,1002.86
2018-03-23T07:25:13.719Z,1002.88
2018-03-23T07:26:23.696Z,1002.9
2018-03-23T07:27:33.673Z,1002.9
2018-03-23T07:28:43.668Z,1002.88
2018-03-23T07:29:53.663Z,1002.89
2018-03-23T07:31:03.649Z,1002.88
2018-03-23T07:32:13.647Z,1002.91
2018-03-23T07:33:23.634Z,1002.89
2018-03-23T07:34:33.635Z,1002.93
2018-03-23T07:35:43.639Z,1002.9
2018-03-23T07:36:53.375Z,1002.87
2018-03-23T07:38:03.103Z,1002.92
2018-03-23T07:39:13.110Z,1002.91
2018-03-23T07:40:23.091Z,1002.95
2018-03-23T07:41:32.805Z,1002.94
2018-03-23T07:42:42.791Z,1002.92
2018-03-23T07:43:52.515Z,1002.96
2018-03-23T07:45:02.260Z,1002.98
2018-03-23T07:46:11.982Z,1003.02
2018-03-23T07:47:21.964Z,1002.97
2018-03-23T07:48:31.684Z,1002.97
2018-03-23T07:49:41.671Z,1002.94
2018-03-23T07:50:51.394Z,1002.94
2018-03-23T07:52:01.373Z,1002.93
2018-03-23T07:53:11.094Z,1002.92
2018-03-23T07:54:20.838Z,1002.96
2018-03-23T07:55:31.070Z,1002.93
2018-03-23T07:56:40.269Z,1002.95
2018-03-23T07:57:50.074Z,1002.92
2018-03-23T07:59:00.046Z,1002.96
2018-03-23T08:00:09.509Z,1002.91
2018-03-23T08:01:19.217Z,1002.95
2018-03-23T08:02:29.204Z,1002.95
2018-03-23T08:03:39.183Z,1002.9
2018-03-23T08:04:48.938Z,1002.9
2018-03-23T08:05:58.935Z,1002.93
2018-03-23T08:07:08.403Z,1002.91
2018-03-23T08:08:17.611Z,1002.96
2018-03-23T08:09:27.357Z,1002.94
2018-03-23T08:10:37.337Z,1002.91
2018-03-23T08:11:47.048Z,1002.9
2018-03-23T08:12:57.031Z,1002.93
2018-03-23T08:14:07.035Z,1002.94
2018-03-23T08:15:16.754Z,1002.9
2018-03-23T08:16:26.473Z,1002.91
2018-03-23T08:17:36.511Z,1002.87
2018-03-23T08:18:46.723Z,1002.88
2018-03-23T08:19:56.445Z,1002.9
2018-03-23T08:21:06.440Z,1002.92
2018-03-23T08:22:16.170Z,1002.9
2018-03-23T08:23:25.896Z,1002.92
2018-03-23T08:24:34.831Z,1002.88
2018-03-23T08:25:44.550Z,1002.93
2018-03-23T08:26:54.516Z,1002.93
2018-03-23T08:28:04.496Z,1002.9
2018-03-23T08:29:14.467Z,1002.88
2018-03-23T08:30:24.443Z,1002.91
2018-03-23T08:31:33.887Z,1002.87
2018-03-23T08:32:43.865Z,1002.84
2018-03-23T08:33:53.849Z,1002.86
2018-03-23T08:35:03.812Z,1002.85
2018-03-23T08:36:13.817Z,1002.86
2018-03-23T08:37:23.832Z,1002.89
2018-03-23T08:38:33.799Z,1002.86
2018-03-23T08:39:43.776Z,1002.84
2018-03-23T08:40:53.742Z,1002.83
2018-03-23T08:42:03.190Z,1002.88
2018-03-23T08:43:13.176Z,1002.86
2018-03-23T08:44:23.207Z,1002.84
2018-03-23T08:45:33.350Z,1002.81
2018-03-23T08:46:43.349Z,1002.84
2018-03-23T08:47:53.068Z,1002.87
2018-03-23T08:49:03.106Z,1002.92
2018-03-23T08:50:13.095Z,1002.9
2018-03-23T08:51:22.822Z,1002.9
2018-03-23T08:52:32.544Z,1002.86
2018-03-23T08:53:42.524Z,1002.88
2018-03-23T08:54:52.265Z,1002.86
2018-03-23T08:56:01.479Z,1002.86
2018-03-23T08:57:11.220Z,1002.86
2018-03-23T08:58:20.948Z,1002.91
2018-03-23T08:59:30.705Z,1002.86
2018-03-23T09:00:40.184Z,1002.89
2018-03-23T09:01:49.896Z,1002.86
2018-03-23T09:02:59.680Z,1002.85
2018-03-23T09:04:09.146Z,1002.9
2018-03-23T09:05:18.598Z,1002.93
2018-03-23T09:06:28.570Z,1002.91
2018-03-23T09:07:38.566Z,1002.91
2018-03-23T09:08:48.544Z,1002.93
2018-03-23T09:09:58.251Z,1002.91
2018-03-23T09:11:07.698Z,1002.91
2018-03-23T09:12:17.681Z,1002.94
2018-03-23T09:13:27.740Z,1002.91
2018-03-23T09:14:36.982Z,1002.94
2018-03-23T09:15:46.947Z,1002.95
2018-03-23T09:16:56.919Z,1002.88
2018-03-23T09:18:06.898Z,1002.91
2018-03-23T09:19:16.893Z,1002.94
2018-03-23T09:20:26.586Z,1002.91
2018-03-23T09:21:36.477Z,1002.91
2018-03-23T09:22:46.473Z,1002.92
2018-03-23T09:23:55.927Z,1002.92
2018-03-23T09:25:05.903Z,1002.92
2018-03-23T09:26:15.910Z,1002.92
2018-03-23T09:27:25.965Z,1002.93
2018-03-23T09:28:35.952Z,1002.92
2018-03-23T09:29:45.663Z,1002.9
2018-03-23T09:30:55.151Z,1002.92
2018-03-23T09:32:04.338Z,1002.88
2018-03-23T09:33:14.060Z,1002.92
2018-03-23T09:34:24.084Z,1002.9
2018-03-23T09:35:33.531Z,1002.92
2018-03-23T09:36:43.741Z,1002.87
2018-03-23T09:37:53.528Z,1002.9
2018-03-23T09:39:02.676Z,1002.85
2018-03-23T09:40:12.428Z,1002.85
2018-03-23T09:41:22.391Z,1002.86
2018-03-23T09:42:32.352Z,1002.85
2018-03-23T09:43:42.110Z,1002.83
2018-03-23T09:44:52.122Z,1002.84
2018-03-23T09:46:01.842Z,1002.8
2018-03-23T09:47:11.806Z,1002.79
2018-03-23T09:48:21.253Z,1002.8
2018-03-23T09:49:31.246Z,1002.77
2018-03-23T09:50:40.965Z,1002.78
2018-03-23T09:51:50.427Z,1002.8
2018-03-23T09:52:59.623Z,1002.78
2018-03-23T09:54:09.332Z,1002.76
2018-03-23T09:55:19.041Z,1002.79
2018-03-23T09:56:28.483Z,1002.8
2018-03-23T09:57:37.929Z,1002.75
2018-03-23T09:58:47.645Z,1002.77
2018-03-23T09:59:57.628Z,1002.75
2018-03-23T10:01:07.322Z,1002.72
2018-03-23T10:02:17.036Z,1002.78
2018-03-23T10:03:27.065Z,1002.76
2018-03-23T10:04:39.001Z,1002.74
2018-03-23T10:05:48.729Z,1002.76
2018-03-23T10:06:57.940Z,1002.75
2018-03-23T10:08:07.159Z,1002.73
2018-03-23T10:09:16.891Z,1002.76
2018-03-23T10:10:26.640Z,1002.75
2018-03-23T10:11:36.354Z,1002.79
2018-03-23T10:12:46.383Z,1002.76
2018-03-23T10:13:56.368Z,1002.74
2018-03-23T10:15:06.356Z,1002.75
2018-03-23T10:16:16.359Z,1002.74
2018-03-23T10:17:26.339Z,1002.77
2018-03-23T10:18:35.803Z,1002.77
2018-03-23T10:19:45.510Z,1002.77
2018-03-23T10:20:56.001Z,1002.75
2018-03-23T10:22:05.839Z,1002.75
2018-03-23T10:23:15.560Z,1002.74
2018-03-23T10:24:25.537Z,1002.72
2018-03-23T10:25:35.519Z,1002.7
2018-03-23T10:26:45.500Z,1002.71
2018-03-23T10:27:55.234Z,1002.7
2018-03-23T10:29:05.226Z,1002.67
2018-03-23T10:30:15.460Z,1002.67
2018-03-23T10:31:25.441Z,1002.63
2018-03-23T10:32:35.430Z,1002.64
2018-03-23T10:33:45.141Z,1002.64
2018-03-23T10:34:54.618Z,1002.64
2018-03-23T10:36:03.811Z,1002.67
2018-03-23T10:37:13.512Z,1002.68
2018-03-23T10:38:23.226Z,1002.65
2018-03-23T10:39:33.205Z,1002.66
2018-03-23T10:40:41.876Z,1002.66
2018-03-23T10:41:51.844Z,1002.61
2018-03-23T10:43:01.887Z,1002.62
2018-03-23T10:44:11.869Z,1002.63
2018-03-23T10:45:21.856Z,1002.63
2018-03-23T10:46:31.846Z,1002.63
2018-03-23T10:47:41.910Z,1002.66
2018-03-23T10:48:51.890Z,1002.63
2018-03-23T10:50:01.887Z,1002.61
2018-03-23T10:51:11.613Z,1002.63
2018-03-23T10:52:21.639Z,1002.63
2018-03-23T10:53:31.642Z,1002.64
2018-03-23T10:54:41.747Z,1002.65
2018-03-23T10:55:51.734Z,1002.64
2018-03-23T10:57:00.924Z,1002.59
2018-03-23T10:58:10.368Z,1002.58
2018-03-23T10:59:20.340Z,1002.57
2018-03-23T11:00:30.453Z,1002.58
2018-03-23T11:01:39.672Z,1002.57
2018-03-23T11:02:49.686Z,1002.59
2018-03-23T11:03:59.145Z,1002.56
2018-03-23T11:05:08.878Z,1002.6
2018-03-23T11:06:18.596Z,1002.59
2018-03-23T11:07:28.297Z,1002.59
2018-03-23T11:08:38.007Z,1002.6
2018-03-23T11:09:47.707Z,1002.58
2018-03-23T11:10:56.649Z,1002.6
2018-03-23T11:12:06.369Z,1002.62
2018-03-23T11:13:16.270Z,1002.56
2018-03-23T11:14:26.000Z,1002.59
2018-03-23T11:15:35.981Z,1002.58
2018-03-23T11:16:45.979Z,1002.62
2018-03-23T11:17:56.000Z,1002.64
2018-03-23T11:19:06.078Z,1002.61
2018-03-23T11:20:16.060Z,1002.65
2018-03-23T11:21:26.052Z,1002.61
2018-03-23T11:22:36.019Z,1002.6
2018-03-23T11:23:45.484Z,1002.6
2018-03-23T11:24:55.213Z,1002.6
2018-03-23T11:26:05.163Z,1002.63
2018-03-23T11:27:14.892Z,1002.65
2018-03-23T11:28:24.599Z,1002.57
2018-03-23T11:29:34.580Z,1002.52
2018-03-23T11:30:44.053Z,1002.56
2018-03-23T11:31:54.041Z,1002.53
2018-03-23T11:33:04.026Z,1002.52
2018-03-23T11:34:13.472Z,1002.55
2018-03-23T11:35:22.982Z,1002.54
2018-03-23T11:36:32.943Z,1002.55
2018-03-23T11:37:42.651Z,1002.51
2018-03-23T11:38:52.618Z,1002.51
2018-03-23T11:40:02.595Z,1002.48
2018-03-23T11:41:12.589Z,1002.46
2018-03-23T11:42:22.574Z,1002.45
2018-03-23T11:43:32.583Z,1002.46
2018-03-23T11:44:42.633Z,1002.42
2018-03-23T11:45:52.765Z,1002.41
2018-03-23T11:47:02.744Z,1002.4
2018-03-23T11:48:12.712Z,1002.37
2018-03-23T11:49:22.717Z,1002.4
2018-03-23T11:50:32.432Z,1002.35
2018-03-23T11:51:42.573Z,1002.36
2018-03-23T11:52:52.555Z,1002.35
2018-03-23T11:54:02.273Z,1002.37
2018-03-23T11:55:12.235Z,1002.35
2018-03-23T11:56:21.994Z,1002.32
2018-03-23T11:57:32.155Z,1002.35
2018-03-23T11:58:42.147Z,1002.36
2018-03-23T11:59:51.852Z,1002.31
2018-03-23T12:01:01.813Z,1002.29
2018-03-23T12:02:11.792Z,1002.32
2018-03-23T12:03:21.754Z,1002.32
2018-03-23T12:04:31.480Z,1002.3
2018-03-23T12:05:41.466Z,1002.28
2018-03-23T12:06:51.510Z,1002.3
2018-03-23T12:08:01.240Z,1002.27
2018-03-23T12:09:11.470Z,1002.25
2018-03-23T12:10:21.428Z,1002.27
2018-03-23T12:11:31.148Z,1002.27
2018-03-23T12:12:41.121Z,1002.23
2018-03-23T12:13:50.296Z,1002.21
2018-03-23T12:15:00.009Z,1002.23
2018-03-23T12:16:10.015Z,1002.21
2018-03-23T12:17:19.991Z,1002.24
2018-03-23T12:18:29.965Z,1002.26
2018-03-23T12:19:39.953Z,1002.32
2018-03-23T12:20:49.401Z,1002.25
2018-03-23T12:21:59.374Z,1002.28
2018-03-23T12:23:09.113Z,1002.27
2018-03-23T12:24:19.112Z,1002.25
2018-03-23T12:25:29.095Z,1002.27
2018-03-23T12:26:38.550Z,1002.22
2018-03-23T12:27:48.525Z,1002.23
2018-03-23T12:28:58.513Z,1002.25
2018-03-23T12:30:08.525Z,1002.13
2018-03-23T12:31:18.754Z,1002.14
2018-03-23T12:32:28.743Z,1002.14
2018-03-23T12:33:38.756Z,1002.17
2018-03-23T12:34:48.791Z,1002.16
2018-03-23T12:35:58.394Z,1002.16
2018-03-23T12:37:08.119Z,1002.13
2018-03-23T12:38:18.084Z,1002.13
2018-03-23T12:39:27.785Z,1002.12
2018-03-23T12:40:37.495Z,1002.14
2018-03-23T12:41:47.457Z,1002.08
2018-03-23T12:42:57.675Z,1002.09
2018-03-23T12:44:07.695Z,1002.09
2018-03-23T12:45:17.665Z,1002.04
2018-03-23T12:46:27.694Z,1002.05
2018-03-23T12:47:37.671Z,1002.04
2018-03-23T12:48:47.705Z,1002.05
2018-03-23T12:49:57.678Z,1001.96
2018-03-23T12:51:07.782Z,1001.97
2018-03-23T12:52:17.772Z,1001.95
2018-03-23T12:53:27.758Z,1001.99
2018-03-23T12:54:37.726Z,1001.97
2018-03-23T12:55:47.713Z,1001.95
2018-03-23T12:56:57.446Z,1001.97
2018-03-23T12:58:07.421Z,1001.94
2018-03-23T12:59:17.144Z,1001.88
2018-03-23T13:00:26.876Z,1001.9
2018-03-23T13:01:36.851Z,1001.89
2018-03-23T13:02:46.841Z,1001.89
2018-03-23T13:03:56.554Z,1001.86
2018-03-23T13:05:06.526Z,1001.89
2018-03-23T13:06:16.245Z,1001.87
2018-03-23T13:07:25.968Z,1001.83
2018-03-23T13:08:35.700Z,1001.8
2018-03-23T13:09:45.674Z,1001.79
2018-03-23T13:10:55.707Z,1001.81
2018-03-23T13:12:05.687Z,1001.77
2018-03-23T13:13:15.144Z,1001.77
2018-03-23T13:14:24.890Z,1001.76
2018-03-23T13:15:35.158Z,1001.79
2018-03-23T13:16:45.139Z,1001.74
2018-03-23T13:17:54.954Z,1001.69
2018-03-23T13:19:04.947Z,1001.73
2018-03-23T13:20:14.953Z,1001.7
2018-03-23T13:21:24.424Z,1001.64
2018-03-23T13:22:34.183Z,1001.67
2018-03-23T13:23:44.630Z,1001.71
2018-03-23T13:24:54.122Z,1001.76
2018-03-23T13:26:04.149Z,1001.69
2018-03-23T13:27:14.217Z,1001.69
2018-03-23T13:28:23.930Z,1001.71
2018-03-23T13:29:33.906Z,1001.71
2018-03-23T13:30:43.885Z,1001.69
2018-03-23T13:31:53.614Z,1001.68
2018-03-23T13:33:02.929Z,1001.68
2018-03-23T13:34:12.632Z,1001.67
2018-03-23T13:35:22.665Z,1001.66
2018-03-23T13:36:32.654Z,1001.64
2018-03-23T13:37:42.626Z,1001.63
2018-03-23T13:38:52.351Z,1001.61
2018-03-23T13:40:02.068Z,1001.64
2018-03-23T13:41:11.546Z,1001.63
2018-03-23T13:42:21.001Z,1001.6
2018-03-23T13:43:30.724Z,1001.58
2018-03-23T13:44:40.496Z,1001.59
2018-03-23T13:45:50.562Z,1001.55
2018-03-23T13:46:59.742Z,1001.58
2018-03-23T13:48:09.202Z,1001.54
2018-03-23T13:49:18.922Z,1001.55
2018-03-23T13:50:28.461Z,1001.51
2018-03-23T13:51:38.114Z,1001.53
2018-03-23T13:52:48.109Z,1001.53
2018-03-23T13:53:58.095Z,1001.51
2018-03-23T13:55:07.830Z,1001.52
2018-03-23T13:56:17.805Z,1001.5
2018-03-23T13:57:27.540Z,1001.48
2018-03-23T13:58:36.725Z,1001.46
2018-03-23T13:59:46.461Z,1001.45
2018-03-23T14:00:56.187Z,1001.45
2018-03-23T14:02:05.644Z,1001.41
2018-03-23T14:03:15.362Z,1001.47
2018-03-23T14:04:25.080Z,1001.41
2018-03-23T14:05:34.540Z,1001.46
2018-03-23T14:06:44.261Z,1001.43